createdAt,value
2023-05-08T00:01:04.740Z,2.80
2023-05-08T00:03:56.871Z,2.20
2023-05-08T00:06:48.962Z,3.50
2023-05-08T00:09:40.960Z,2.80
2023-05-08T00:12:32.952Z,3.40
2023-05-08T00:15:24.962Z,2.90
2023-05-08T00:18:17.450Z,3.60
2023-05-08T00:21:09.451Z,2.50
2023-05-08T00:24:01.506Z,3.50
2023-05-08T00:26:53.448Z,4.10
2023-05-08T00:29:45.457Z,3.10
2023-05-08T00:32:37.731Z,1.80
2023-05-08T00:35:29.783Z,3.20
2023-05-08T00:38:21.755Z,2.70
2023-05-08T00:41:13.789Z,2.50
2023-05-08T00:44:06.199Z,2.50
2023-05-08T00:46:58.254Z,3.70
2023-05-08T00:49:50.631Z,1.80
2023-05-08T00:52:43.493Z,1.70
2023-05-08T00:55:35.786Z,3.40
2023-05-08T00:58:28.761Z,2.40
2023-05-08T01:01:03.706Z,2.60
2023-05-08T01:03:56.065Z,3.40
2023-05-08T01:06:48.202Z,3.50
2023-05-08T01:09:40.579Z,1.80
2023-05-08T01:12:46.056Z,2.70
2023-05-08T01:15:39.432Z,4.50
2023-05-08T01:20:58.098Z,4.30
2023-05-08T01:24:20.216Z,3.10
2023-05-08T01:30:50.618Z,4.20
2023-05-08T01:33:51.522Z,3.80
2023-05-08T01:36:51.706Z,4.80
2023-05-08T01:39:40.447Z,3.70
2023-05-08T01:42:45.251Z,3.90
2023-05-08T01:45:43.284Z,3.60
2023-05-08T01:48:36.612Z,5.20
2023-05-08T01:51:36.065Z,6.20
2023-05-08T01:54:31.374Z,4.30
2023-05-08T01:57:27.781Z,3.90
2023-05-08T02:00:23.215Z,5.20
2023-05-08T02:03:18.350Z,3.90
2023-05-08T02:06:16.899Z,4.60
2023-05-08T02:09:10.934Z,3.60
2023-05-08T02:12:04.020Z,5.40
2023-05-08T02:14:57.318Z,3.80
2023-05-08T02:17:51.813Z,2.90
2023-05-08T02:20:44.228Z,3.20
2023-05-08T02:23:27.480Z,2.50
2023-05-08T02:26:21.395Z,3.00
2023-05-08T02:29:13.679Z,2.60
2023-05-08T02:31:53.010Z,2.20
2023-05-08T02:34:51.431Z,2.00
2023-05-08T02:37:54.690Z,2.80
2023-05-08T02:40:49.449Z,3.00
2023-05-08T02:43:41.759Z,4.10
2023-05-08T02:46:47.331Z,4.00
2023-05-08T02:49:49.962Z,2.20
2023-05-08T02:52:46.997Z,2.70
2023-05-08T02:55:47.736Z,2.60
2023-05-08T02:58:46.978Z,2.50
2023-05-08T03:01:46.974Z,2.70
2023-05-08T03:04:43.067Z,2.90
2023-05-08T03:07:27.072Z,4.10
2023-05-08T03:10:23.184Z,4.30
2023-05-08T03:13:17.621Z,3.40
2023-05-08T03:16:14.603Z,4.30
2023-05-08T03:19:13.995Z,2.90
2023-05-08T03:22:08.623Z,2.60
2023-05-08T03:25:04.411Z,6.70
2023-05-08T03:27:58.163Z,3.60
2023-05-08T03:30:51.952Z,4.80
2023-05-08T03:33:45.246Z,3.60
2023-05-08T03:36:22.457Z,4.00
2023-05-08T03:39:14.676Z,3.30
2023-05-08T03:42:07.035Z,2.70
2023-05-08T03:45:00.464Z,3.80
2023-05-08T03:47:54.809Z,2.50
2023-05-08T03:50:47.496Z,3.00
2023-05-08T03:53:39.552Z,4.00
2023-05-08T03:56:31.917Z,3.60
2023-05-08T03:59:23.019Z,2.50
2023-05-08T04:02:23.176Z,4.00
2023-05-08T04:05:22.376Z,3.60
2023-05-08T04:08:17.365Z,2.40
2023-05-08T04:11:18.260Z,2.30
2023-05-08T04:14:14.364Z,1.70
2023-05-08T04:17:11.763Z,1.90
2023-05-08T04:19:53.282Z,2.60
2023-05-08T04:22:46.391Z,2.00
2023-05-08T04:25:40.790Z,3.50
2023-05-08T04:28:32.827Z,3.00
2023-05-08T04:31:25.585Z,3.90
2023-05-08T04:34:18.555Z,3.60
2023-05-08T04:37:10.748Z,4.20
2023-05-08T04:40:04.657Z,4.70
2023-05-08T04:42:56.991Z,2.60
2023-05-08T04:45:48.948Z,4.30
2023-05-08T04:48:40.986Z,3.90
2023-05-08T04:51:32.971Z,2.90
2023-05-08T04:54:24.972Z,4.30
2023-05-08T04:57:00.387Z,2.90
2023-05-08T04:59:52.506Z,4.70
2023-05-08T05:02:44.573Z,4.40
2023-05-08T05:05:38.916Z,4.20
2023-05-08T05:08:31.310Z,5.80
2023-05-08T05:11:23.446Z,5.80
2023-05-08T05:14:15.373Z,3.30
2023-05-08T05:16:50.200Z,3.40
2023-05-08T05:19:42.365Z,3.40
2023-05-08T05:22:34.748Z,3.40
2023-05-08T05:25:26.773Z,3.30
2023-05-08T05:28:18.805Z,3.00
2023-05-08T05:31:12.219Z,3.60
2023-05-08T05:34:04.684Z,4.80
2023-05-08T05:36:53.074Z,5.10
2023-05-08T05:39:45.059Z,2.80
2023-05-08T05:42:36.992Z,5.70
2023-05-08T05:45:31.139Z,3.80
2023-05-08T05:48:24.583Z,4.00
2023-05-08T05:51:16.614Z,3.40
2023-05-08T05:54:08.678Z,3.00
2023-05-08T05:57:01.081Z,4.00
2023-05-08T05:59:54.771Z,3.20
2023-05-08T06:02:47.193Z,4.40
2023-05-08T06:05:39.552Z,3.80
2023-05-08T06:08:31.596Z,3.80
2023-05-08T06:11:23.675Z,3.70
2023-05-08T06:14:15.864Z,3.30
2023-05-08T06:17:07.937Z,4.60
2023-05-08T06:20:00.748Z,4.60
2023-05-08T06:22:52.755Z,4.80
2023-05-08T06:25:44.783Z,6.10
2023-05-08T06:28:36.763Z,4.70
2023-05-08T06:31:28.852Z,4.70
2023-05-08T06:34:21.011Z,3.70
2023-05-08T06:37:13.142Z,3.50
2023-05-08T06:39:54.698Z,4.90
2023-05-08T06:42:56.213Z,3.70
2023-05-08T06:45:48.213Z,3.20
2023-05-08T06:48:40.251Z,4.60
2023-05-08T06:51:32.736Z,5.80
2023-05-08T06:54:24.737Z,4.40
2023-05-08T06:57:17.016Z,3.80
2023-05-08T07:00:11.866Z,3.60
2023-05-08T07:03:04.012Z,4.90
2023-05-08T07:05:56.279Z,4.00
2023-05-08T07:08:37.502Z,4.90
2023-05-08T07:11:29.718Z,4.60
2023-05-08T07:14:21.821Z,4.70
2023-05-08T07:17:13.887Z,4.10
2023-05-08T07:20:06.722Z,7.60
2023-05-08T07:22:58.677Z,3.90
2023-05-08T07:25:50.702Z,4.70
2023-05-08T07:28:42.534Z,4.10
2023-05-08T07:31:34.818Z,4.00
2023-05-08T07:34:09.857Z,4.00
2023-05-08T07:37:01.833Z,3.80
2023-05-08T07:39:53.834Z,3.10
2023-05-08T07:42:46.341Z,2.30
2023-05-08T07:45:38.606Z,3.70
2023-05-08T07:48:30.680Z,3.50
2023-05-08T07:51:13.029Z,5.20
2023-05-08T07:54:05.088Z,4.40
2023-05-08T07:56:57.072Z,8.80
2023-05-08T07:59:49.169Z,4.00
2023-05-08T08:02:41.724Z,4.20
2023-05-08T08:05:33.894Z,3.60
2023-05-08T08:08:25.942Z,3.60
2023-05-08T08:11:17.962Z,5.60
2023-05-08T08:14:09.908Z,4.20
2023-05-08T08:16:50.914Z,4.40
2023-05-08T08:19:43.006Z,5.80
2023-05-08T08:22:36.487Z,4.10
2023-05-08T08:25:28.588Z,3.40
2023-05-08T08:28:20.607Z,4.20
2023-05-08T08:31:12.651Z,2.10
2023-05-08T08:34:04.618Z,3.00
2023-05-08T08:36:57.104Z,4.70
2023-05-08T08:39:49.181Z,4.10
2023-05-08T08:42:41.814Z,3.10
2023-05-08T08:45:34.889Z,4.10
2023-05-08T08:48:29.672Z,3.50
2023-05-08T08:51:28.927Z,3.50
2023-05-08T08:54:29.578Z,2.80
2023-05-08T08:57:18.587Z,3.20
2023-05-08T09:00:13.221Z,3.70
2023-05-08T09:03:06.314Z,3.60
2023-05-08T09:06:00.589Z,3.70
2023-05-08T09:08:55.720Z,3.80
2023-05-08T09:11:48.777Z,3.00
2023-05-08T09:14:26.739Z,4.90
2023-05-08T09:17:18.805Z,4.20
2023-05-08T09:20:15.332Z,2.90
2023-05-08T09:23:07.761Z,4.80
2023-05-08T09:25:59.714Z,4.20
2023-05-08T09:29:08.562Z,3.00
2023-05-08T09:32:00.669Z,3.90
2023-05-08T09:34:56.153Z,2.30
2023-05-08T09:40:39.648Z,3.70
2023-05-08T09:43:31.681Z,2.50
2023-05-08T09:46:25.368Z,2.40
2023-05-08T09:49:20.439Z,3.90
2023-05-08T09:52:18.027Z,4.20
2023-05-08T09:55:02.962Z,4.70
2023-05-08T09:57:59.705Z,3.70
2023-05-08T10:00:52.491Z,4.90
2023-05-08T10:03:52.726Z,4.30
2023-05-08T10:06:45.068Z,8.30
2023-05-08T10:09:49.876Z,4.20
2023-05-08T10:12:42.953Z,5.00
2023-05-08T10:15:38.728Z,4.70
2023-05-08T10:18:36.294Z,8.40
2023-05-08T10:21:33.131Z,2.50
2023-05-08T10:24:30.498Z,5.30
2023-05-08T10:27:31.808Z,4.20
2023-05-08T10:30:27.841Z,4.90
2023-05-08T10:33:27.297Z,3.90
2023-05-08T10:36:21.281Z,3.40
2023-05-08T10:39:14.699Z,3.40
2023-05-08T10:41:50.071Z,3.30
2023-05-08T10:44:42.550Z,3.40
2023-05-08T10:47:47.780Z,2.70
2023-05-08T10:50:56.483Z,3.20
2023-05-08T10:53:54.425Z,2.80
2023-05-08T10:56:46.586Z,3.40
2023-05-08T10:59:39.695Z,3.70
2023-05-08T11:02:37.874Z,2.70
2023-05-08T11:05:30.045Z,2.90
2023-05-08T11:08:24.674Z,2.00
2023-05-08T11:11:24.589Z,2.80
2023-05-08T11:14:18.131Z,4.20
2023-05-08T11:17:11.579Z,2.80
2023-05-08T11:20:05.594Z,4.20
2023-05-08T11:22:57.551Z,3.40
2023-05-08T11:25:49.649Z,4.60
2023-05-08T11:28:57.847Z,2.50
2023-05-08T11:31:55.880Z,3.80
2023-05-08T11:34:51.172Z,3.70
2023-05-08T11:38:03.084Z,5.50
2023-05-08T11:41:02.847Z,3.20
2023-05-08T11:44:17.921Z,3.80
2023-05-08T11:47:04.538Z,4.00
2023-05-08T11:50:00.261Z,3.70
2023-05-08T11:52:54.044Z,2.80
2023-05-08T11:55:36.183Z,3.40
2023-05-08T11:58:28.225Z,2.10
2023-05-08T12:01:22.404Z,2.90
2023-05-08T12:04:15.129Z,1.50
2023-05-08T12:07:07.206Z,2.80
2023-05-08T12:10:01.570Z,5.80
2023-05-08T12:12:53.768Z,2.50
2023-05-08T12:15:46.056Z,3.40
2023-05-08T12:18:39.724Z,2.80
2023-05-08T12:21:32.156Z,1.60
2023-05-08T12:24:25.390Z,1.70
2023-05-08T12:27:17.362Z,3.50
2023-05-08T12:30:12.173Z,4.10
2023-05-08T12:33:05.808Z,1.70
2023-05-08T12:35:58.148Z,3.80
2023-05-08T12:38:51.451Z,3.50
2023-05-08T12:41:27.648Z,2.30
2023-05-08T12:44:04.864Z,2.20
2023-05-08T12:46:59.080Z,3.40
2023-05-08T12:49:52.586Z,2.10
2023-05-08T12:52:44.897Z,2.80
2023-05-08T12:55:38.797Z,2.70
2023-05-08T12:58:22.308Z,3.60
2023-05-08T13:01:10.258Z,1.50
2023-05-08T13:04:03.345Z,2.10
2023-05-08T13:06:59.041Z,2.80
2023-05-08T13:12:50.991Z,2.20
2023-05-08T13:15:43.186Z,3.60
2023-05-08T13:18:36.798Z,2.30
2023-05-08T13:21:17.717Z,3.20
2023-05-08T13:24:10.321Z,2.20
2023-05-08T13:27:03.129Z,2.50
2023-05-08T13:29:55.106Z,5.00
2023-05-08T13:32:47.124Z,2.60
2023-05-08T13:35:39.316Z,4.80
2023-05-08T13:38:31.288Z,2.90
2023-05-08T13:41:23.469Z,2.50
2023-05-08T13:44:15.447Z,2.30
2023-05-08T13:47:07.804Z,2.70
2023-05-08T13:49:59.833Z,2.50
2023-05-08T13:52:54.477Z,3.10
2023-05-08T14:19:10.274Z,6.80
2023-05-08T14:22:02.421Z,3.50
2023-05-08T14:24:54.569Z,2.00
2023-05-08T14:27:46.565Z,3.60
2023-05-08T14:30:20.955Z,1.80
2023-05-08T14:33:12.949Z,3.20
2023-05-08T14:36:05.043Z,3.90
2023-05-08T14:38:57.106Z,2.50
2023-05-08T14:42:08.925Z,2.60
2023-05-08T14:45:01.257Z,2.30
2023-05-08T14:47:36.315Z,2.80
2023-05-08T14:50:28.608Z,2.90
2023-05-08T14:53:20.752Z,3.30
2023-05-08T14:56:13.728Z,2.40
2023-05-08T14:59:06.054Z,3.50
2023-05-08T15:01:58.119Z,3.20
2023-05-08T15:04:50.194Z,2.00
2023-05-08T15:07:42.324Z,1.60
2023-05-08T15:10:34.503Z,3.10
2023-05-08T15:13:27.046Z,2.70
2023-05-08T15:16:19.194Z,2.50
2023-05-08T15:19:11.208Z,3.30
2023-05-08T15:22:03.714Z,1.90
2023-05-08T15:24:55.686Z,3.10
2023-05-08T15:27:36.274Z,3.80
2023-05-08T15:30:18.963Z,4.40
2023-05-08T15:33:11.576Z,2.70
2023-05-08T15:36:03.522Z,3.20
2023-05-08T15:38:55.561Z,4.50
2023-05-08T15:41:47.630Z,3.50
2023-05-08T15:44:53.901Z,3.60
2023-05-08T15:47:47.125Z,4.50
2023-05-08T15:50:39.156Z,3.80
2023-05-08T15:53:31.206Z,4.80
2023-05-08T15:56:24.690Z,3.10
2023-05-08T15:59:16.730Z,3.40
2023-05-08T16:02:09.128Z,3.10
2023-05-08T16:05:01.277Z,5.40
2023-05-08T16:07:55.425Z,3.90
2023-05-08T16:10:48.448Z,2.90
2023-05-08T16:13:40.396Z,2.40
2023-05-08T16:16:32.455Z,1.80
2023-05-08T16:19:24.502Z,2.50
2023-05-08T16:22:16.612Z,2.40
2023-05-08T16:25:10.195Z,3.10
2023-05-08T16:28:02.317Z,3.40
2023-05-08T16:30:54.270Z,3.60
2023-05-08T16:33:46.258Z,2.60
2023-05-08T16:36:38.522Z,2.20
2023-05-08T16:39:30.681Z,2.90
2023-05-08T16:42:22.659Z,3.30
2023-05-08T16:45:15.281Z,4.10
2023-05-08T16:48:07.813Z,4.40
2023-05-08T16:50:59.858Z,3.70
2023-05-08T16:53:51.940Z,3.70
2023-05-08T16:56:44.118Z,3.60
2023-05-08T16:59:25.191Z,3.70
2023-05-08T17:02:19.047Z,3.50
2023-05-08T17:05:12.046Z,4.50
2023-05-08T17:08:04.135Z,4.70
2023-05-08T17:10:56.015Z,4.10
2023-05-08T17:13:48.118Z,5.50
2023-05-08T17:16:40.225Z,5.60
2023-05-08T17:19:32.235Z,4.70
2023-05-08T17:22:24.206Z,5.50
2023-05-08T17:25:07.016Z,5.30
2023-05-08T17:27:58.970Z,5.20
2023-05-08T17:30:51.253Z,6.20
2023-05-08T17:33:43.164Z,4.20
2023-05-08T17:36:35.155Z,4.70
2023-05-08T17:39:27.160Z,3.60
2023-05-08T17:42:19.136Z,5.10
2023-05-08T17:45:12.471Z,4.90
2023-05-08T17:48:04.488Z,3.80
2023-05-08T17:50:56.450Z,5.60
2023-05-08T17:53:48.448Z,3.70
2023-05-08T17:56:40.465Z,6.40
2023-05-08T17:59:32.498Z,6.40
2023-05-08T18:02:24.559Z,7.50
2023-05-08T18:05:16.749Z,7.40
2023-05-08T18:08:09.428Z,8.00
2023-05-08T18:11:01.413Z,6.00
2023-05-08T18:13:54.855Z,5.90
2023-05-08T18:16:49.496Z,6.50
2023-05-08T18:19:41.459Z,6.80
2023-05-08T18:22:33.449Z,5.60
2023-05-08T18:25:25.330Z,9.60
2023-05-08T18:28:17.314Z,11.60
2023-05-08T18:31:09.390Z,11.30
2023-05-08T18:34:02.130Z,11.70
2023-05-08T18:36:36.625Z,8.20
2023-05-08T18:39:20.445Z,8.90
2023-05-08T18:42:12.533Z,9.80
2023-05-08T18:45:05.989Z,11.80
2023-05-08T18:47:58.148Z,34.10
2023-05-08T18:50:50.127Z,30.50
2023-05-08T18:53:42.099Z,31.60
2023-05-08T18:56:34.234Z,15.00
2023-05-08T18:59:26.360Z,11.80
2023-05-08T19:02:18.365Z,7.40
2023-05-08T19:05:10.935Z,7.80
2023-05-08T19:07:54.434Z,6.60
2023-05-08T19:10:36.647Z,8.20
2023-05-08T19:13:13.948Z,8.20
2023-05-08T19:15:48.863Z,10.20
2023-05-08T19:18:40.846Z,8.90
2023-05-08T19:21:32.936Z,8.80
2023-05-08T19:24:08.454Z,10.20
2023-05-08T19:27:00.597Z,10.30
2023-05-08T19:29:52.625Z,10.00
2023-05-08T19:32:44.789Z,15.20
2023-05-08T19:35:36.904Z,17.50
2023-05-08T19:38:28.952Z,24.70
2023-05-08T19:41:20.958Z,23.10
2023-05-08T19:44:13.047Z,34.30
2023-05-08T19:47:05.418Z,38.20
2023-05-08T19:49:57.417Z,16.50
2023-05-08T19:52:49.762Z,20.30
2023-05-08T19:55:41.752Z,22.90
2023-05-08T19:58:33.804Z,17.00
2023-05-08T20:01:25.803Z,17.30
2023-05-08T20:04:17.952Z,13.60
2023-05-08T20:06:57.136Z,17.90
2023-05-08T20:09:49.131Z,16.80
2023-05-08T20:12:41.053Z,11.90
2023-05-08T20:15:33.176Z,10.90
2023-05-08T20:18:25.215Z,18.30
2023-05-08T20:21:17.171Z,14.90
2023-05-08T20:24:09.560Z,12.20
2023-05-08T20:27:01.597Z,16.00
2023-05-08T20:29:53.580Z,15.20
2023-05-08T20:32:30.755Z,11.80
2023-05-08T20:35:22.879Z,17.10
2023-05-08T20:38:16.050Z,11.30
2023-05-08T20:41:08.178Z,11.20
2023-05-08T20:44:00.143Z,11.90
2023-05-08T20:46:52.320Z,12.10
2023-05-08T20:49:44.242Z,16.70
2023-05-08T20:52:38.010Z,15.70
2023-05-08T20:55:30.871Z,18.50
2023-05-08T20:58:22.850Z,19.10
2023-05-08T21:01:00.020Z,21.20
2023-05-08T21:03:37.669Z,17.90
2023-05-08T21:06:29.839Z,22.30
2023-05-08T21:09:21.808Z,21.00
2023-05-08T21:11:59.180Z,16.30
2023-05-08T21:14:51.492Z,19.00
2023-05-08T21:17:43.659Z,20.10
2023-05-08T21:20:36.069Z,15.30
2023-05-08T21:23:28.054Z,15.00
2023-05-08T21:26:23.433Z,16.90
2023-05-08T21:29:15.393Z,17.50
2023-05-08T21:32:10.108Z,15.50
2023-05-08T21:34:57.955Z,15.90
2023-05-08T21:37:53.850Z,14.50
2023-05-08T21:40:46.564Z,12.90
2023-05-08T21:43:27.547Z,14.60
2023-05-08T21:46:19.583Z,15.70
2023-05-08T21:49:11.999Z,12.90
2023-05-08T21:52:03.939Z,12.70
2023-05-08T21:54:55.981Z,12.50
2023-05-08T21:57:48.035Z,11.00
2023-05-08T22:00:23.629Z,13.90
2023-05-08T22:03:15.907Z,11.70
2023-05-08T22:06:08.636Z,11.20
2023-05-08T22:09:00.600Z,10.70
2023-05-08T22:11:52.715Z,10.00
2023-05-08T22:14:44.675Z,10.40
2023-05-08T22:17:36.780Z,10.50
2023-05-08T22:20:28.891Z,8.70
2023-05-08T22:23:20.943Z,8.10
2023-05-08T22:26:12.928Z,11.90
2023-05-08T22:29:04.871Z,9.50
2023-05-08T22:31:56.979Z,10.20
2023-05-08T22:34:49.838Z,10.20
2023-05-08T22:37:41.936Z,8.30
2023-05-08T22:40:34.462Z,10.70
2023-05-08T22:43:26.654Z,9.50
2023-05-08T22:46:19.136Z,9.70
2023-05-08T22:49:11.350Z,9.70
2023-05-08T22:52:03.407Z,8.40
2023-05-08T22:54:55.396Z,11.50
2023-05-08T22:57:29.757Z,7.70
2023-05-08T23:00:22.682Z,10.10
2023-05-08T23:03:00.172Z,11.20
2023-05-08T23:05:52.302Z,13.10
2023-05-08T23:08:44.296Z,11.80
2023-05-08T23:11:36.468Z,14.10
2023-05-08T23:14:28.445Z,14.60
2023-05-08T23:17:20.451Z,15.00
2023-05-08T23:20:13.820Z,14.40
2023-05-08T23:23:05.869Z,15.70
2023-05-08T23:26:00.952Z,18.00
2023-05-08T23:28:52.978Z,18.20
2023-05-08T23:31:45.068Z,17.30
2023-05-08T23:34:37.106Z,12.40
2023-05-08T23:37:29.210Z,13.50
2023-05-08T23:40:21.279Z,16.10
2023-05-08T23:43:13.261Z,11.50
2023-05-08T23:46:06.500Z,11.60
2023-05-08T23:48:58.498Z,10.00
2023-05-08T23:51:50.447Z,14.40
2023-05-08T23:54:42.552Z,12.80
2023-05-08T23:57:34.606Z,12.60
